createdAt,value
2018-02-06T00:01:44.481Z,8.90
2018-02-06T00:04:13.376Z,10.68
2018-02-06T00:06:42.248Z,9.77
2018-02-06T00:09:11.351Z,10.45
2018-02-06T00:11:40.269Z,11.18
2018-02-06T00:14:10.025Z,9.48
2018-02-06T00:16:38.908Z,11.38
2018-02-06T00:19:07.815Z,10.98
2018-02-06T00:21:36.688Z,11.40
2018-02-06T00:24:05.563Z,11.38
2018-02-06T00:26:34.697Z,11.20
2018-02-06T00:29:03.568Z,10.88
2018-02-06T00:31:32.444Z,11.73
2018-02-06T00:34:01.353Z,12.85
2018-02-06T00:36:30.232Z,11.50
2018-02-06T00:38:59.357Z,11.35
2018-02-06T00:41:28.264Z,10.60
2018-02-06T00:43:57.139Z,10.70
2018-02-06T00:46:26.128Z,10.07
2018-02-06T00:48:55.037Z,11.30
2018-02-06T00:51:24.017Z,11.55
2018-02-06T00:53:52.892Z,11.38
2018-02-06T00:56:22.344Z,11.35
2018-02-06T00:58:51.229Z,12.10
2018-02-06T01:01:20.108Z,11.88
2018-02-06T01:03:49.020Z,11.12
2018-02-06T01:06:17.892Z,13.38
2018-02-06T01:08:46.874Z,10.85
2018-02-06T01:11:15.913Z,11.70
2018-02-06T01:13:44.895Z,11.77
2018-02-06T01:16:14.914Z,13.15
2018-02-06T01:18:43.865Z,9.35
2018-02-06T01:21:12.754Z,11.20
2018-02-06T01:23:41.631Z,10.48
2018-02-06T01:26:10.893Z,11.48
2018-02-06T01:28:39.764Z,9.98
2018-02-06T01:31:08.636Z,10.13
2018-02-06T01:33:37.555Z,12.57
2018-02-06T01:36:06.432Z,12.95
2018-02-06T01:38:35.327Z,12.32
2018-02-06T01:41:04.549Z,11.85
2018-02-06T01:43:33.429Z,13.48
2018-02-06T01:46:02.302Z,10.55
2018-02-06T01:48:31.210Z,12.45
2018-02-06T01:51:00.098Z,10.40
2018-02-06T01:53:30.290Z,10.73
2018-02-06T01:55:59.198Z,12.00
2018-02-06T01:58:28.807Z,12.82
2018-02-06T02:00:57.680Z,10.85
2018-02-06T02:03:26.582Z,11.52
2018-02-06T02:05:55.448Z,8.65
2018-02-06T02:08:24.341Z,9.75
2018-02-06T02:10:53.244Z,10.02
2018-02-06T02:13:22.975Z,9.75
2018-02-06T02:15:51.846Z,8.85
2018-02-06T02:18:20.749Z,9.50
2018-02-06T02:20:49.628Z,10.70
2018-02-06T02:23:18.513Z,10.88
2018-02-06T02:25:47.413Z,9.75
2018-02-06T02:28:16.289Z,11.00
2018-02-06T02:30:45.526Z,9.57
2018-02-06T02:33:14.423Z,11.18
2018-02-06T02:35:43.397Z,10.00
2018-02-06T02:38:12.281Z,12.40
2018-02-06T02:40:41.182Z,9.73
2018-02-06T04:39:52.507Z,9.82
2018-02-06T04:42:21.363Z,9.82
2018-02-06T04:44:50.247Z,9.88
2018-02-06T04:47:20.208Z,10.65
2018-02-06T04:49:49.080Z,11.63
2018-02-06T04:52:17.959Z,10.00
2018-02-06T04:54:47.226Z,9.20
2018-02-06T04:57:16.580Z,10.57
2018-02-06T04:59:45.659Z,10.48
2018-02-06T05:02:14.798Z,10.55
2018-02-06T05:04:43.680Z,10.07
2018-02-06T05:07:12.552Z,11.15
2018-02-06T05:09:41.864Z,9.25
2018-02-06T05:12:10.745Z,10.80
2018-02-06T05:14:39.632Z,10.55
2018-02-06T05:17:08.969Z,10.52
2018-02-06T05:19:37.852Z,10.93
2018-02-06T05:22:06.726Z,9.65
2018-02-06T05:24:35.625Z,11.85
2018-02-06T05:27:04.488Z,10.60
2018-02-06T05:29:33.352Z,9.57
2018-02-06T05:32:02.324Z,10.00
2018-02-06T05:34:31.192Z,11.25
2018-02-06T05:37:00.089Z,9.48
2018-02-06T05:39:28.988Z,9.98
2018-02-06T05:41:57.881Z,10.73
2018-02-06T05:44:26.743Z,9.82
2018-02-06T05:46:55.649Z,11.65
2018-02-06T05:49:24.731Z,9.48
2018-02-06T05:51:54.489Z,10.23
2018-02-06T05:54:23.384Z,9.38
2018-02-06T05:56:52.252Z,9.27
2018-02-06T05:59:21.140Z,8.82
2018-02-06T06:01:50.031Z,9.07
2018-02-06T06:04:18.901Z,9.77
2018-02-06T06:06:48.214Z,11.50
2018-02-06T06:09:17.123Z,9.85
2018-02-06T06:11:45.989Z,9.05
2018-02-06T06:14:14.971Z,10.65
2018-02-06T06:16:43.875Z,8.98
2018-02-06T06:19:12.737Z,9.30
2018-02-06T06:21:41.612Z,8.60
2018-02-06T06:24:10.521Z,9.70
2018-02-06T06:26:39.396Z,10.50
2018-02-06T06:29:08.272Z,10.65
2018-02-06T06:31:37.340Z,12.50
2018-02-06T06:34:06.210Z,9.88
2018-02-06T06:36:35.067Z,11.38
2018-02-06T06:39:04.024Z,8.75
2018-02-06T06:41:32.892Z,10.27
2018-02-06T06:44:01.751Z,9.63
2018-02-06T06:46:30.667Z,10.25
2018-02-06T06:49:00.451Z,10.43
2018-02-06T06:51:29.850Z,11.65
2018-02-06T06:53:58.740Z,10.95
2018-02-06T06:56:27.609Z,10.75
2018-02-06T06:58:56.600Z,10.45
2018-02-06T07:01:26.013Z,11.90
2018-02-06T07:03:55.162Z,11.80
2018-02-06T07:06:24.025Z,8.73
2018-02-06T07:08:52.914Z,10.77
2018-02-06T07:11:22.339Z,10.93
2018-02-06T07:13:51.820Z,11.82
2018-02-06T07:16:21.335Z,11.50
2018-02-06T07:18:50.196Z,9.75
2018-02-06T07:21:19.070Z,9.45
2018-02-06T07:23:48.081Z,9.50
2018-02-06T07:26:17.089Z,9.43
2018-02-06T07:28:45.980Z,11.18
2018-02-06T07:31:15.299Z,10.27
2018-02-06T07:33:44.179Z,10.13
2018-02-06T07:36:13.063Z,9.63
2018-02-06T07:38:41.963Z,9.88
2018-02-06T07:41:10.845Z,10.57
2018-02-06T07:43:39.720Z,10.65
2018-02-06T07:46:08.819Z,9.10
2018-02-06T07:48:37.698Z,10.85
2018-02-06T07:51:06.916Z,9.77
2018-02-06T07:53:36.583Z,10.35
2018-02-06T07:56:05.810Z,9.52
2018-02-06T07:58:34.696Z,11.65
2018-02-06T08:01:04.424Z,13.00
2018-02-06T08:03:33.301Z,10.98
2018-02-06T08:06:02.894Z,10.90
2018-02-06T08:08:31.933Z,12.50
2018-02-06T08:11:01.586Z,12.05
2018-02-06T08:13:30.455Z,11.10
2018-02-06T08:15:59.355Z,11.82
2018-02-06T08:18:28.225Z,10.60
2018-02-06T08:20:57.102Z,12.23
2018-02-06T08:23:26.005Z,10.97
2018-02-06T08:25:54.893Z,10.30
2018-02-06T08:28:23.784Z,10.63
2018-02-06T08:30:52.840Z,11.70
2018-02-06T08:33:21.713Z,11.20
2018-02-06T08:35:50.598Z,10.40
2018-02-06T08:38:19.508Z,11.10
2018-02-06T08:40:48.373Z,10.40
2018-02-06T08:43:17.256Z,10.57
2018-02-06T08:45:46.175Z,12.00
2018-02-06T08:48:15.944Z,10.40
2018-02-06T08:50:44.820Z,11.50
2018-02-06T08:53:13.703Z,10.87
2018-02-06T08:55:43.349Z,11.17
2018-02-06T08:58:12.216Z,11.50
2018-02-06T09:00:41.125Z,10.30
2018-02-06T09:03:09.992Z,10.93
2018-02-06T09:05:38.865Z,11.10
2018-02-06T09:08:08.695Z,11.00
2018-02-06T09:10:37.769Z,9.30
2018-02-06T09:13:08.444Z,10.40
2018-02-06T09:18:29.324Z,9.97
2018-02-06T09:20:58.209Z,9.53
2018-02-06T09:23:27.088Z,10.70
2018-02-06T09:25:55.992Z,10.60
2018-02-06T09:28:24.889Z,11.50
2018-02-06T09:30:53.756Z,9.53
2018-02-06T09:33:22.759Z,9.63
2018-02-06T09:35:51.984Z,10.37
2018-02-06T09:38:20.857Z,11.33
2018-02-06T09:40:49.769Z,10.10
2018-02-06T09:43:19.669Z,9.87
2018-02-06T09:45:53.777Z,11.10
2018-02-06T09:48:30.447Z,10.77
2018-02-06T09:51:00.301Z,11.90
2018-02-06T09:53:29.508Z,10.57
2018-02-06T10:07:49.658Z,10.97
2018-02-06T10:10:18.530Z,10.40
2018-02-06T10:12:47.406Z,9.67
2018-02-06T10:15:30.383Z,9.90
2018-02-06T10:17:59.261Z,10.00
2018-02-06T10:20:28.128Z,9.93
2018-02-06T10:23:12.059Z,10.80
2018-02-06T10:25:44.043Z,10.87
2018-02-06T10:28:14.289Z,11.00
2018-02-06T10:30:50.743Z,10.70
2018-02-06T10:39:17.056Z,11.23
2018-02-06T10:44:44.575Z,10.83
2018-02-06T10:47:17.999Z,11.80
2018-02-06T10:55:37.469Z,11.33
2018-02-06T10:58:06.341Z,9.37
2018-02-06T11:00:35.234Z,10.50
2018-02-06T11:03:04.175Z,10.90
2018-02-06T11:05:33.054Z,10.73
2018-02-06T11:08:02.145Z,12.50
2018-02-06T11:10:31.394Z,10.83
2018-02-06T11:13:00.337Z,10.53
2018-02-06T11:15:29.257Z,10.90
2018-02-06T11:17:58.154Z,10.80
2018-02-06T11:20:27.217Z,11.27
2018-02-06T11:22:56.084Z,11.50
2018-02-06T11:25:25.715Z,10.90
2018-02-06T11:27:55.155Z,10.30
2018-02-06T11:30:24.030Z,10.27
2018-02-06T11:32:52.928Z,9.63
2018-02-06T11:35:21.823Z,10.83
2018-02-06T11:37:50.742Z,10.07
2018-02-06T11:40:19.656Z,12.23
2018-02-06T11:42:48.532Z,10.50
2018-02-06T11:45:17.575Z,11.60
2018-02-06T11:47:46.460Z,11.27
2018-02-06T11:50:15.322Z,11.83
2018-02-06T11:52:44.180Z,10.33
2018-02-06T11:55:13.073Z,9.40
2018-02-06T11:57:41.933Z,10.10
2018-02-06T12:00:10.812Z,11.10
2018-02-06T12:02:39.691Z,11.17
2018-02-06T12:05:08.564Z,11.40
2018-02-06T12:07:38.226Z,10.50
2018-02-06T12:10:07.711Z,11.70
2018-02-06T12:12:37.522Z,11.57
2018-02-06T12:15:06.383Z,12.07
2018-02-06T12:17:35.278Z,12.20
2018-02-06T12:20:04.436Z,10.70
2018-02-06T12:22:33.297Z,10.80
2018-02-06T12:25:02.200Z,9.87
2018-02-06T12:27:31.938Z,11.30
2018-02-06T12:30:03.972Z,11.50
2018-02-06T12:32:32.853Z,11.20
2018-02-06T12:35:01.949Z,10.87
2018-02-06T12:37:31.664Z,10.20
2018-02-06T12:40:00.531Z,10.20
2018-02-06T12:42:29.422Z,10.40
2018-02-06T12:44:58.322Z,11.50
2018-02-06T12:47:27.187Z,9.80
2018-02-06T12:49:56.064Z,8.27
2018-02-06T12:52:24.988Z,10.43
2018-02-06T12:54:54.012Z,10.20
2018-02-06T12:57:22.866Z,9.73
2018-02-06T12:59:51.767Z,10.27
2018-02-06T13:02:20.615Z,8.70
2018-02-06T13:04:50.400Z,11.30
2018-02-06T13:07:19.323Z,10.10
2018-02-06T13:09:48.218Z,11.30
2018-02-06T13:12:17.170Z,11.10
2018-02-06T13:14:46.072Z,10.63
2018-02-06T13:17:14.944Z,10.20
2018-02-06T13:19:43.810Z,11.43
2018-02-06T13:22:12.697Z,10.20
2018-02-06T13:24:41.772Z,8.50
2018-02-06T13:27:10.720Z,10.33
2018-02-06T13:29:39.636Z,10.63
2018-02-06T13:32:08.504Z,11.23
2018-02-06T13:34:38.255Z,10.37
2018-02-06T13:37:07.259Z,9.83
2018-02-06T13:39:36.176Z,10.00
2018-02-06T13:42:05.133Z,10.07
2018-02-06T13:44:34.228Z,9.13
2018-02-06T13:47:03.090Z,10.97
2018-02-06T13:49:32.490Z,10.37
2018-02-06T13:52:01.369Z,9.03
2018-02-06T13:54:30.249Z,10.17
2018-02-06T13:56:59.178Z,10.17
2018-02-06T13:59:28.300Z,9.23
2018-02-06T14:01:57.216Z,9.17
2018-02-06T14:04:24.805Z,9.23
2018-02-06T14:06:52.372Z,10.33
2018-02-06T14:09:19.988Z,10.03
2018-02-06T14:11:47.982Z,10.30
2018-02-06T14:14:16.299Z,8.73
2018-02-06T14:16:43.932Z,9.87
2018-02-06T14:19:11.488Z,10.90
2018-02-06T14:21:39.887Z,11.30
2018-02-06T14:24:07.434Z,10.10
2018-02-06T14:26:35.280Z,10.87
2018-02-06T14:29:02.872Z,10.17
2018-02-06T14:31:30.777Z,10.00
2018-02-06T14:33:58.369Z,9.60
2018-02-06T14:36:26.679Z,10.87
2018-02-06T14:38:54.212Z,10.00
2018-02-06T14:41:22.492Z,11.20
2018-02-06T14:43:50.034Z,9.37
2018-02-06T14:46:18.331Z,11.20
2018-02-06T14:48:46.613Z,9.63
2018-02-06T14:51:14.330Z,9.10
2018-02-06T14:53:41.853Z,8.57
2018-02-06T14:56:09.465Z,10.53
2018-02-06T14:58:37.023Z,9.70
2018-02-06T15:01:05.369Z,9.63
2018-02-06T15:03:33.413Z,9.67
2018-02-06T15:06:00.961Z,8.77
2018-02-06T15:08:28.504Z,9.27
2018-02-06T15:10:57.646Z,9.90
2018-02-06T15:13:25.474Z,10.87
2018-02-06T15:15:53.445Z,9.90
2018-02-06T15:18:20.978Z,10.20
2018-02-06T15:20:48.670Z,9.20
2018-02-06T15:23:16.994Z,11.13
2018-02-06T15:25:44.631Z,10.10
2018-02-06T15:28:12.183Z,8.47
2018-02-06T15:30:39.710Z,10.73
2018-02-06T15:33:07.237Z,10.10
2018-02-06T15:35:34.774Z,10.10
2018-02-06T15:38:03.149Z,9.60
2018-02-06T15:40:31.714Z,10.90
2018-02-06T15:43:00.040Z,10.03
2018-02-06T15:45:27.563Z,10.70
2018-02-06T17:15:54.181Z,9.20
2018-02-06T17:18:23.333Z,9.23
2018-02-06T17:20:52.256Z,10.63
2018-02-06T17:23:21.201Z,11.20
2018-02-06T17:25:50.169Z,11.03
2018-02-06T17:28:20.268Z,10.30
2018-02-06T17:30:49.377Z,10.97
2018-02-06T17:33:18.253Z,9.93
2018-02-06T17:35:47.144Z,10.43
2018-02-06T17:38:16.465Z,11.83
2018-02-06T17:40:45.721Z,10.37
2018-02-06T17:43:14.634Z,11.17
2018-02-06T17:45:43.544Z,12.77
2018-02-06T17:48:12.425Z,11.03
2018-02-06T17:50:41.611Z,10.63
2018-02-06T17:53:11.583Z,12.77
2018-02-06T17:55:40.475Z,11.50
2018-02-06T17:58:09.424Z,12.57
2018-02-06T18:00:38.430Z,11.20
2018-02-06T18:03:07.326Z,10.97
2018-02-06T18:05:36.574Z,11.97
2018-02-06T18:08:06.416Z,12.10
2018-02-06T18:10:36.104Z,12.63
2018-02-06T18:13:05.000Z,11.07
2018-02-06T18:15:33.899Z,14.03
2018-02-06T18:18:03.099Z,11.97
2018-02-06T18:20:31.975Z,12.43
2018-02-06T18:23:00.880Z,12.10
2018-02-06T18:25:29.772Z,12.60
2018-02-06T18:27:58.636Z,12.30
2018-02-06T18:30:27.677Z,13.27
2018-02-06T18:32:56.561Z,13.80
2018-02-06T18:35:25.451Z,13.30
2018-02-06T18:37:54.344Z,12.77
2018-02-06T18:40:23.220Z,12.20
2018-02-06T18:42:52.987Z,13.37
2018-02-06T18:45:21.989Z,11.67
2018-02-06T18:47:50.934Z,13.13
2018-02-06T18:50:20.220Z,10.90
2018-02-06T18:52:49.621Z,11.00
2018-02-06T18:55:18.666Z,12.27
2018-02-06T18:57:47.993Z,10.70
2018-02-06T19:00:16.949Z,11.73
2018-02-06T19:02:45.972Z,13.00
2018-02-06T19:05:14.965Z,11.70
2018-02-06T19:07:44.500Z,12.30
2018-02-06T19:10:13.420Z,13.40
2018-02-06T19:12:42.524Z,12.40
2018-02-06T19:15:11.475Z,13.63
2018-02-06T19:17:40.338Z,12.10
2018-02-06T19:20:09.910Z,14.20
2018-02-06T19:22:39.149Z,12.37
2018-02-06T19:25:08.125Z,12.07
2018-02-06T19:27:37.785Z,13.77
2018-02-06T19:30:06.803Z,13.70
2018-02-06T19:32:35.739Z,11.20
2018-02-06T19:35:04.790Z,14.50
2018-02-06T19:37:33.758Z,13.20
2018-02-06T19:40:02.849Z,12.20
2018-02-06T19:42:31.884Z,12.93
2018-02-06T19:45:01.047Z,11.83
2018-02-06T19:47:30.113Z,12.53
2018-02-06T19:49:59.107Z,12.50
2018-02-06T19:52:28.148Z,12.70
2018-02-06T19:54:57.419Z,13.20
2018-02-06T19:57:26.469Z,13.40
2018-02-06T19:59:55.683Z,15.23
2018-02-06T20:02:24.846Z,13.67
2018-02-06T20:04:54.024Z,12.50
2018-02-06T20:07:23.109Z,13.07
2018-02-06T20:09:53.366Z,13.70
2018-02-06T20:12:22.302Z,13.93
2018-02-06T20:14:51.248Z,12.03
2018-02-06T20:17:20.249Z,12.57
2018-02-06T20:19:49.206Z,15.20
2018-02-06T20:22:19.352Z,12.53
2018-02-06T20:24:48.417Z,11.80
2018-02-06T20:27:17.327Z,14.60
2018-02-06T20:29:46.463Z,12.93
2018-02-06T20:32:15.511Z,14.93
2018-02-06T20:34:44.639Z,15.47
2018-02-06T20:37:13.725Z,13.80
2018-02-06T20:39:42.762Z,12.40
2018-02-06T20:42:11.909Z,13.43
2018-02-06T20:44:41.042Z,14.00
2018-02-06T20:47:10.609Z,13.57
2018-02-06T20:49:40.767Z,14.67
2018-02-06T20:52:09.835Z,12.47
2018-02-06T20:54:38.742Z,15.10
2018-02-06T20:57:07.630Z,13.80
2018-02-06T20:59:36.775Z,11.50
2018-02-06T21:02:05.680Z,13.07
2018-02-06T21:04:34.597Z,12.77
2018-02-06T21:07:04.294Z,12.83
2018-02-06T21:09:33.173Z,13.10
2018-02-06T21:12:03.041Z,13.93
2018-02-06T21:14:31.988Z,12.20
2018-02-06T21:17:00.881Z,12.40
2018-02-06T21:19:29.784Z,13.30
2018-02-06T21:21:59.697Z,12.53
2018-02-06T21:24:28.902Z,13.70
2018-02-06T21:26:58.685Z,13.82
2018-02-06T21:29:27.646Z,13.20
2018-02-06T21:31:57.391Z,12.40
2018-02-06T21:34:26.331Z,12.40
2018-02-06T21:36:55.470Z,12.67
2018-02-06T21:39:24.377Z,13.80
2018-02-06T21:41:53.263Z,12.20
2018-02-06T21:44:22.465Z,12.13
2018-02-06T21:46:51.378Z,12.07
2018-02-06T21:49:20.476Z,12.65
2018-02-06T21:51:49.412Z,13.87
2018-02-06T21:54:18.306Z,12.10
2018-02-06T21:56:47.214Z,11.95
2018-02-06T21:59:16.254Z,12.03
2018-02-06T22:01:45.201Z,12.67
2018-02-06T22:04:14.100Z,13.00
2018-02-06T22:06:43.619Z,13.00
2018-02-06T22:09:13.759Z,14.30
2018-02-06T22:11:42.854Z,12.90
2018-02-06T22:14:12.359Z,12.95
2018-02-06T22:16:41.421Z,13.02
2018-02-06T22:19:10.332Z,13.10
2018-02-06T22:21:39.256Z,12.00
2018-02-06T22:24:08.141Z,14.02
2018-02-06T22:26:37.615Z,13.82
2018-02-06T22:29:06.545Z,14.23
2018-02-06T22:31:35.431Z,14.82
2018-02-06T22:34:06.021Z,14.95
2018-02-06T22:36:34.917Z,13.03
2018-02-06T22:39:03.918Z,12.93
2018-02-06T22:41:32.800Z,12.52
2018-02-06T22:44:01.719Z,13.88
2018-02-06T22:46:30.628Z,12.90
2018-02-06T22:48:59.520Z,13.40
2018-02-06T22:51:29.270Z,12.45
2018-02-06T22:53:58.176Z,14.13
2018-02-06T22:56:27.091Z,12.35
2018-02-06T22:58:56.005Z,14.95
2018-02-06T23:01:24.887Z,14.10
2018-02-06T23:03:53.879Z,13.35
2018-02-06T23:06:22.781Z,13.50
2018-02-06T23:08:51.648Z,14.68
2018-02-06T23:11:20.870Z,13.48
2018-02-06T23:13:50.485Z,13.95
2018-02-06T23:16:19.445Z,15.68
2018-02-06T23:18:48.331Z,13.10
2018-02-06T23:21:17.258Z,14.52
2018-02-06T23:23:46.134Z,12.43
2018-02-06T23:26:15.014Z,15.23
2018-02-06T23:28:44.267Z,15.93
2018-02-06T23:31:13.160Z,13.82
2018-02-06T23:33:42.045Z,13.57
2018-02-06T23:36:10.956Z,13.55
2018-02-06T23:38:39.876Z,13.00
2018-02-06T23:41:08.756Z,13.27
2018-02-06T23:43:37.685Z,14.70
2018-02-06T23:46:06.576Z,14.02
2018-02-06T23:48:36.153Z,15.40
2018-02-06T23:51:05.062Z,14.15
2018-02-06T23:53:33.952Z,12.85
2018-02-06T23:56:02.827Z,13.43
2018-02-06T23:58:31.733Z,15.55
